sensor_id;sensor_type;location;lat;lon;timestamp;P1;durP1;ratioP1;P2;durP2;ratioP2
21501;SDS011;27639;48.674;9.242;2023-01-05T00:00:51;1.33;;;0.50;;
21501;SDS011;27639;48.674;9.242;2023-01-05T00:03:18;0.50;;;0.30;;
21501;SDS011;27639;48.674;9.242;2023-01-05T00:05:44;1.00;;;0.60;;
21501;SDS011;27639;48.674;9.242;2023-01-05T00:08:09;1.65;;;0.60;;
21501;SDS011;27639;48.674;9.242;2023-01-05T00:10:35;1.08;;;0.40;;
21501;SDS011;27639;48.674;9.242;2023-01-05T00:13:19;1.63;;;0.40;;
21501;SDS011;27639;48.674;9.242;2023-01-05T00:18:53;1.40;;;0.50;;
21501;SDS011;27639;48.674;9.242;2023-01-05T00:24:22;1.87;;;0.60;;
21501;SDS011;27639;48.674;9.242;2023-01-05T00:26:47;1.10;;;0.47;;
21501;SDS011;27639;48.674;9.242;2023-01-05T00:29:13;2.65;;;0.60;;
21501;SDS011;27639;48.674;9.242;2023-01-05T00:31:38;1.40;;;0.70;;
21501;SDS011;27639;48.674;9.242;2023-01-05T00:34:04;1.38;;;0.55;;
21501;SDS011;27639;48.674;9.242;2023-01-05T00:36:29;1.40;;;0.50;;
21501;SDS011;27639;48.674;9.242;2023-01-05T00:38:55;1.58;;;0.40;;
21501;SDS011;27639;48.674;9.242;2023-01-05T00:41:20;0.88;;;0.38;;
21501;SDS011;27639;48.674;9.242;2023-01-05T00:43:46;1.45;;;0.40;;
21501;SDS011;27639;48.674;9.242;2023-01-05T00:46:12;1.00;;;0.40;;
21501;SDS011;27639;48.674;9.242;2023-01-05T00:48:37;1.08;;;0.40;;
21501;SDS011;27639;48.674;9.242;2023-01-05T00:51:03;0.73;;;0.40;;
21501;SDS011;27639;48.674;9.242;2023-01-05T00:53:28;1.65;;;0.50;;
21501;SDS011;27639;48.674;9.242;2023-01-05T00:55:55;0.77;;;0.30;;
21501;SDS011;27639;48.674;9.242;2023-01-05T00:58:21;1.38;;;0.52;;
21501;SDS011;27639;48.674;9.242;2023-01-05T01:00:47;1.73;;;0.50;;
21501;SDS011;27639;48.674;9.242;2023-01-05T01:03:12;1.83;;;0.65;;
21501;SDS011;27639;48.674;9.242;2023-01-05T01:05:38;1.02;;;0.40;;
21501;SDS011;27639;48.674;9.242;2023-01-05T01:08:03;0.85;;;0.40;;
21501;SDS011;27639;48.674;9.242;2023-01-05T01:10:29;2.83;;;0.60;;
21501;SDS011;27639;48.674;9.242;2023-01-05T01:12:54;0.90;;;0.32;;
21501;SDS011;27639;48.674;9.242;2023-01-05T01:15:20;1.92;;;0.60;;
21501;SDS011;27639;48.674;9.242;2023-01-05T01:17:46;0.98;;;0.40;;
21501;SDS011;27639;48.674;9.242;2023-01-05T01:20:11;1.45;;;0.40;;
21501;SDS011;27639;48.674;9.242;2023-01-05T01:22:37;0.63;;;0.28;;
21501;SDS011;27639;48.674;9.242;2023-01-05T01:25:03;0.55;;;0.30;;
21501;SDS011;27639;48.674;9.242;2023-01-05T01:27:29;3.83;;;0.77;;
21501;SDS011;27639;48.674;9.242;2023-01-05T01:29:55;0.60;;;0.30;;
21501;SDS011;27639;48.674;9.242;2023-01-05T01:32:21;1.25;;;0.30;;
21501;SDS011;27639;48.674;9.242;2023-01-05T01:34:48;0.95;;;0.40;;
21501;SDS011;27639;48.674;9.242;2023-01-05T01:37:14;5.10;;;2.50;;
21501;SDS011;27639;48.674;9.242;2023-01-05T01:39:40;0.52;;;0.30;;
21501;SDS011;27639;48.674;9.242;2023-01-05T01:42:10;0.90;;;0.30;;
21501;SDS011;27639;48.674;9.242;2023-01-05T01:47:34;0.80;;;0.30;;
21501;SDS011;27639;48.674;9.242;2023-01-05T01:50:15;0.88;;;0.35;;
21501;SDS011;27639;48.674;9.242;2023-01-05T01:52:44;0.70;;;0.30;;
21501;SDS011;27639;48.674;9.242;2023-01-05T01:55:13;0.30;;;0.20;;
21501;SDS011;27639;48.674;9.242;2023-01-05T01:57:39;0.82;;;0.30;;
21501;SDS011;27639;48.674;9.242;2023-01-05T02:00:06;0.98;;;0.38;;
21501;SDS011;27639;48.674;9.242;2023-01-05T02:02:33;0.68;;;0.20;;
21501;SDS011;27639;48.674;9.242;2023-01-05T02:04:59;1.25;;;0.40;;
21501;SDS011;27639;48.674;9.242;2023-01-05T02:07:29;0.77;;;0.32;;
21501;SDS011;27639;48.674;9.242;2023-01-05T02:09:58;0.90;;;0.40;;
21501;SDS011;27639;48.674;9.242;2023-01-05T02:32:09;1.75;;;0.30;;
21501;SDS011;27639;48.674;9.242;2023-01-05T02:40:01;0.55;;;0.20;;
21501;SDS011;27639;48.674;9.242;2023-01-05T02:42:35;0.77;;;0.43;;
21501;SDS011;27639;48.674;9.242;2023-01-05T02:45:04;1.08;;;0.40;;
21501;SDS011;27639;48.674;9.242;2023-01-05T02:47:34;0.73;;;0.30;;
21501;SDS011;27639;48.674;9.242;2023-01-05T02:50:02;1.17;;;0.32;;
21501;SDS011;27639;48.674;9.242;2023-01-05T02:52:41;0.70;;;0.30;;
21501;SDS011;27639;48.674;9.242;2023-01-05T02:55:15;1.88;;;0.50;;
21501;SDS011;27639;48.674;9.242;2023-01-05T02:57:53;1.35;;;0.30;;
21501;SDS011;27639;48.674;9.242;2023-01-05T03:00:40;0.90;;;0.38;;
21501;SDS011;27639;48.674;9.242;2023-01-05T03:08:59;0.55;;;0.28;;
21501;SDS011;27639;48.674;9.242;2023-01-05T03:11:32;1.85;;;0.30;;
21501;SDS011;27639;48.674;9.242;2023-01-05T03:14:27;0.63;;;0.30;;
21501;SDS011;27639;48.674;9.242;2023-01-05T03:16:59;0.63;;;0.30;;
21501;SDS011;27639;48.674;9.242;2023-01-05T03:19:25;0.60;;;0.30;;
21501;SDS011;27639;48.674;9.242;2023-01-05T03:24:50;1.65;;;0.40;;
21501;SDS011;27639;48.674;9.242;2023-01-05T03:27:34;0.60;;;0.30;;
21501;SDS011;27639;48.674;9.242;2023-01-05T03:30:20;0.77;;;0.30;;
21501;SDS011;27639;48.674;9.242;2023-01-05T03:33:13;0.90;;;0.32;;
21501;SDS011;27639;48.674;9.242;2023-01-05T03:36:07;1.02;;;0.40;;
21501;SDS011;27639;48.674;9.242;2023-01-05T03:38:39;2.25;;;0.32;;
21501;SDS011;27639;48.674;9.242;2023-01-05T03:41:07;0.60;;;0.30;;
21501;SDS011;27639;48.674;9.242;2023-01-05T03:43:35;0.30;;;0.20;;
21501;SDS011;27639;48.674;9.242;2023-01-05T03:46:03;1.25;;;0.32;;
21501;SDS011;27639;48.674;9.242;2023-01-05T03:48:34;0.40;;;0.20;;
21501;SDS011;27639;48.674;9.242;2023-01-05T03:51:00;0.95;;;0.38;;
21501;SDS011;27639;48.674;9.242;2023-01-05T03:53:25;0.80;;;0.30;;
21501;SDS011;27639;48.674;9.242;2023-01-05T03:55:51;0.88;;;0.30;;
21501;SDS011;27639;48.674;9.242;2023-01-05T03:58:17;0.65;;;0.30;;
21501;SDS011;27639;48.674;9.242;2023-01-05T04:00:42;0.50;;;0.28;;
21501;SDS011;27639;48.674;9.242;2023-01-05T04:03:08;1.38;;;0.52;;
21501;SDS011;27639;48.674;9.242;2023-01-05T04:05:34;0.70;;;0.30;;
21501;SDS011;27639;48.674;9.242;2023-01-05T04:08:00;0.40;;;0.20;;
21501;SDS011;27639;48.674;9.242;2023-01-05T04:10:26;0.52;;;0.30;;
21501;SDS011;27639;48.674;9.242;2023-01-05T04:12:51;0.70;;;0.30;;
21501;SDS011;27639;48.674;9.242;2023-01-05T04:15:17;0.30;;;0.20;;
21501;SDS011;27639;48.674;9.242;2023-01-05T04:17:42;0.63;;;0.28;;
21501;SDS011;27639;48.674;9.242;2023-01-05T04:20:08;1.05;;;0.30;;
21501;SDS011;27639;48.674;9.242;2023-01-05T04:22:34;0.65;;;0.30;;
21501;SDS011;27639;48.674;9.242;2023-01-05T04:25:00;0.45;;;0.22;;
21501;SDS011;27639;48.674;9.242;2023-01-05T04:27:25;0.70;;;0.30;;
21501;SDS011;27639;48.674;9.242;2023-01-05T04:29:51;0.60;;;0.30;;
21501;SDS011;27639;48.674;9.242;2023-01-05T04:32:17;0.65;;;0.30;;
21501;SDS011;27639;48.674;9.242;2023-01-05T04:34:42;0.50;;;0.22;;
21501;SDS011;27639;48.674;9.242;2023-01-05T04:37:08;0.50;;;0.30;;
21501;SDS011;27639;48.674;9.242;2023-01-05T04:39:33;0.50;;;0.20;;
21501;SDS011;27639;48.674;9.242;2023-01-05T04:41:59;1.65;;;0.40;;
21501;SDS011;27639;48.674;9.242;2023-01-05T04:44:24;0.75;;;0.30;;
21501;SDS011;27639;48.674;9.242;2023-01-05T04:46:50;0.28;;;0.28;;
21501;SDS011;27639;48.674;9.242;2023-01-05T04:49:15;0.63;;;0.30;;
21501;SDS011;27639;48.674;9.242;2023-01-05T04:51:41;0.65;;;0.30;;
21501;SDS011;27639;48.674;9.242;2023-01-05T04:54:07;1.00;;;0.30;;
21501;SDS011;27639;48.674;9.242;2023-01-05T04:56:32;0.60;;;0.30;;
21501;SDS011;27639;48.674;9.242;2023-01-05T04:58:58;0.77;;;0.40;;
21501;SDS011;27639;48.674;9.242;2023-01-05T05:01:23;0.70;;;0.30;;
21501;SDS011;27639;48.674;9.242;2023-01-05T05:03:49;0.77;;;0.30;;
21501;SDS011;27639;48.674;9.242;2023-01-05T05:06:14;1.13;;;0.35;;
21501;SDS011;27639;48.674;9.242;2023-01-05T05:08:41;0.75;;;0.30;;
21501;SDS011;27639;48.674;9.242;2023-01-05T05:11:07;0.70;;;0.30;;
21501;SDS011;27639;48.674;9.242;2023-01-05T05:13:33;1.40;;;0.45;;
21501;SDS011;27639;48.674;9.242;2023-01-05T05:15:58;0.35;;;0.30;;
21501;SDS011;27639;48.674;9.242;2023-01-05T05:18:24;1.77;;;0.30;;
21501;SDS011;27639;48.674;9.242;2023-01-05T05:20:50;0.90;;;0.40;;
21501;SDS011;27639;48.674;9.242;2023-01-05T05:23:16;1.73;;;0.63;;
21501;SDS011;27639;48.674;9.242;2023-01-05T05:25:42;0.95;;;0.30;;
21501;SDS011;27639;48.674;9.242;2023-01-05T05:28:08;1.60;;;0.43;;
21501;SDS011;27639;48.674;9.242;2023-01-05T05:30:33;1.15;;;0.50;;
21501;SDS011;27639;48.674;9.242;2023-01-05T05:32:59;1.67;;;0.40;;
21501;SDS011;27639;48.674;9.242;2023-01-05T05:35:24;1.20;;;0.40;;
21501;SDS011;27639;48.674;9.242;2023-01-05T05:37:50;1.35;;;0.47;;
21501;SDS011;27639;48.674;9.242;2023-01-05T05:40:15;1.63;;;0.52;;
21501;SDS011;27639;48.674;9.242;2023-01-05T05:42:41;0.70;;;0.30;;
21501;SDS011;27639;48.674;9.242;2023-01-05T05:45:07;0.55;;;0.30;;
21501;SDS011;27639;48.674;9.242;2023-01-05T05:47:32;1.00;;;0.30;;
21501;SDS011;27639;48.674;9.242;2023-01-05T05:49:58;0.40;;;0.30;;
21501;SDS011;27639;48.674;9.242;2023-01-05T05:52:24;0.73;;;0.30;;
21501;SDS011;27639;48.674;9.242;2023-01-05T05:54:49;1.65;;;0.35;;
21501;SDS011;27639;48.674;9.242;2023-01-05T05:57:15;0.85;;;0.50;;
21501;SDS011;27639;48.674;9.242;2023-01-05T05:59:41;0.73;;;0.30;;
21501;SDS011;27639;48.674;9.242;2023-01-05T06:02:07;0.60;;;0.30;;
21501;SDS011;27639;48.674;9.242;2023-01-05T06:04:32;0.45;;;0.20;;
21501;SDS011;27639;48.674;9.242;2023-01-05T06:06:58;0.77;;;0.30;;
21501;SDS011;27639;48.674;9.242;2023-01-05T06:09:23;0.60;;;0.30;;
21501;SDS011;27639;48.674;9.242;2023-01-05T06:11:49;0.95;;;0.30;;
21501;SDS011;27639;48.674;9.242;2023-01-05T06:14:15;0.73;;;0.30;;
21501;SDS011;27639;48.674;9.242;2023-01-05T06:16:40;1.08;;;0.32;;
21501;SDS011;27639;48.674;9.242;2023-01-05T06:19:07;1.17;;;0.30;;
21501;SDS011;27639;48.674;9.242;2023-01-05T06:21:33;0.88;;;0.40;;
21501;SDS011;27639;48.674;9.242;2023-01-05T06:23:59;0.95;;;0.38;;
21501;SDS011;27639;48.674;9.242;2023-01-05T06:26:24;1.55;;;0.30;;
21501;SDS011;27639;48.674;9.242;2023-01-05T06:28:50;0.95;;;0.40;;
21501;SDS011;27639;48.674;9.242;2023-01-05T06:31:15;1.13;;;0.40;;
21501;SDS011;27639;48.674;9.242;2023-01-05T06:33:41;0.60;;;0.40;;
21501;SDS011;27639;48.674;9.242;2023-01-05T06:36:07;0.80;;;0.30;;
21501;SDS011;27639;48.674;9.242;2023-01-05T06:38:32;0.82;;;0.40;;
21501;SDS011;27639;48.674;9.242;2023-01-05T06:40:58;1.05;;;0.40;;
21501;SDS011;27639;48.674;9.242;2023-01-05T06:43:23;1.00;;;0.40;;
21501;SDS011;27639;48.674;9.242;2023-01-05T06:45:49;0.82;;;0.20;;
21501;SDS011;27639;48.674;9.242;2023-01-05T06:48:15;0.40;;;0.20;;
21501;SDS011;27639;48.674;9.242;2023-01-05T06:50:40;0.60;;;0.30;;
21501;SDS011;27639;48.674;9.242;2023-01-05T06:53:06;1.20;;;0.40;;
21501;SDS011;27639;48.674;9.242;2023-01-05T06:55:31;1.42;;;0.50;;
21501;SDS011;27639;48.674;9.242;2023-01-05T06:57:57;1.05;;;0.40;;
21501;SDS011;27639;48.674;9.242;2023-01-05T07:00:22;1.30;;;0.50;;
21501;SDS011;27639;48.674;9.242;2023-01-05T07:02:48;1.17;;;0.40;;
21501;SDS011;27639;48.674;9.242;2023-01-05T07:05:14;1.63;;;0.40;;
21501;SDS011;27639;48.674;9.242;2023-01-05T07:07:39;1.75;;;0.47;;
21501;SDS011;27639;48.674;9.242;2023-01-05T07:10:05;1.27;;;0.40;;
21501;SDS011;27639;48.674;9.242;2023-01-05T07:12:31;1.23;;;0.40;;
21501;SDS011;27639;48.674;9.242;2023-01-05T07:14:56;1.38;;;0.50;;
21501;SDS011;27639;48.674;9.242;2023-01-05T07:17:22;2.45;;;0.60;;
21501;SDS011;27639;48.674;9.242;2023-01-05T07:19:48;1.15;;;0.45;;
21501;SDS011;27639;48.674;9.242;2023-01-05T07:22:13;1.23;;;0.50;;
21501;SDS011;27639;48.674;9.242;2023-01-05T07:24:39;1.60;;;0.50;;
21501;SDS011;27639;48.674;9.242;2023-01-05T07:27:04;2.55;;;0.50;;
21501;SDS011;27639;48.674;9.242;2023-01-05T07:29:31;3.25;;;1.00;;
21501;SDS011;27639;48.674;9.242;2023-01-05T07:31:57;2.58;;;1.00;;
21501;SDS011;27639;48.674;9.242;2023-01-05T07:34:23;2.97;;;1.25;;
21501;SDS011;27639;48.674;9.242;2023-01-05T07:36:48;3.50;;;1.40;;
21501;SDS011;27639;48.674;9.242;2023-01-05T07:39:14;3.10;;;1.20;;
21501;SDS011;27639;48.674;9.242;2023-01-05T07:41:40;2.67;;;1.00;;
21501;SDS011;27639;48.674;9.242;2023-01-05T07:44:06;2.72;;;0.90;;
21501;SDS011;27639;48.674;9.242;2023-01-05T07:46:31;4.80;;;1.17;;
21501;SDS011;27639;48.674;9.242;2023-01-05T07:48:57;3.78;;;0.90;;
21501;SDS011;27639;48.674;9.242;2023-01-05T07:51:23;2.05;;;0.80;;
21501;SDS011;27639;48.674;9.242;2023-01-05T07:53:48;2.28;;;0.90;;
21501;SDS011;27639;48.674;9.242;2023-01-05T07:56:14;2.75;;;1.30;;
21501;SDS011;27639;48.674;9.242;2023-01-05T07:58:40;3.20;;;2.40;;
21501;SDS011;27639;48.674;9.242;2023-01-05T08:01:07;6.22;;;2.22;;
21501;SDS011;27639;48.674;9.242;2023-01-05T08:03:38;4.43;;;1.90;;
21501;SDS011;27639;48.674;9.242;2023-01-05T08:06:06;3.67;;;2.20;;
21501;SDS011;27639;48.674;9.242;2023-01-05T08:08:32;3.45;;;2.28;;
21501;SDS011;27639;48.674;9.242;2023-01-05T08:10:58;4.13;;;2.63;;
21501;SDS011;27639;48.674;9.242;2023-01-05T08:13:24;4.90;;;2.35;;
21501;SDS011;27639;48.674;9.242;2023-01-05T08:16:08;6.88;;;4.03;;
21501;SDS011;27639;48.674;9.242;2023-01-05T08:18:34;6.90;;;3.58;;
21501;SDS011;27639;48.674;9.242;2023-01-05T08:21:00;3.50;;;1.67;;
21501;SDS011;27639;48.674;9.242;2023-01-05T08:23:28;2.97;;;1.17;;
21501;SDS011;27639;48.674;9.242;2023-01-05T08:25:56;3.05;;;0.90;;
21501;SDS011;27639;48.674;9.242;2023-01-05T08:28:25;1.95;;;0.88;;
21501;SDS011;27639;48.674;9.242;2023-01-05T08:30:50;3.25;;;0.70;;
21501;SDS011;27639;48.674;9.242;2023-01-05T08:33:16;2.72;;;0.70;;
21501;SDS011;27639;48.674;9.242;2023-01-05T08:35:42;1.95;;;0.70;;
21501;SDS011;27639;48.674;9.242;2023-01-05T08:38:09;3.03;;;0.88;;
21501;SDS011;27639;48.674;9.242;2023-01-05T08:40:35;4.93;;;0.93;;
21501;SDS011;27639;48.674;9.242;2023-01-05T08:43:02;2.95;;;0.70;;
21501;SDS011;27639;48.674;9.242;2023-01-05T08:45:29;3.33;;;1.20;;
21501;SDS011;27639;48.674;9.242;2023-01-05T08:47:55;2.47;;;0.80;;
21501;SDS011;27639;48.674;9.242;2023-01-05T08:50:20;3.53;;;1.00;;
21501;SDS011;27639;48.674;9.242;2023-01-05T08:52:46;4.65;;;1.00;;
21501;SDS011;27639;48.674;9.242;2023-01-05T08:55:11;4.82;;;1.20;;
21501;SDS011;27639;48.674;9.242;2023-01-05T08:57:37;5.50;;;1.27;;
21501;SDS011;27639;48.674;9.242;2023-01-05T09:00:03;4.50;;;1.27;;
21501;SDS011;27639;48.674;9.242;2023-01-05T09:02:29;7.65;;;1.58;;
21501;SDS011;27639;48.674;9.242;2023-01-05T09:04:55;3.60;;;1.10;;
21501;SDS011;27639;48.674;9.242;2023-01-05T09:07:21;5.43;;;1.27;;
21501;SDS011;27639;48.674;9.242;2023-01-05T09:09:47;3.90;;;1.20;;
21501;SDS011;27639;48.674;9.242;2023-01-05T09:12:12;5.68;;;1.48;;
21501;SDS011;27639;48.674;9.242;2023-01-05T09:14:38;5.75;;;1.55;;
21501;SDS011;27639;48.674;9.242;2023-01-05T09:17:03;5.80;;;1.40;;
21501;SDS011;27639;48.674;9.242;2023-01-05T09:19:29;4.22;;;1.13;;
21501;SDS011;27639;48.674;9.242;2023-01-05T09:21:55;5.18;;;1.10;;
21501;SDS011;27639;48.674;9.242;2023-01-05T09:24:20;8.20;;;1.38;;
21501;SDS011;27639;48.674;9.242;2023-01-05T09:26:46;6.15;;;1.20;;
21501;SDS011;27639;48.674;9.242;2023-01-05T09:29:12;4.22;;;1.23;;
21501;SDS011;27639;48.674;9.242;2023-01-05T09:31:38;5.10;;;1.40;;
21501;SDS011;27639;48.674;9.242;2023-01-05T09:34:05;8.13;;;1.95;;
21501;SDS011;27639;48.674;9.242;2023-01-05T09:36:31;5.78;;;1.30;;
21501;SDS011;27639;48.674;9.242;2023-01-05T09:38:56;6.30;;;1.45;;
21501;SDS011;27639;48.674;9.242;2023-01-05T09:43:52;8.30;;;1.30;;
21501;SDS011;27639;48.674;9.242;2023-01-05T09:46:26;8.10;;;1.60;;
21501;SDS011;27639;48.674;9.242;2023-01-05T09:48:56;6.97;;;1.23;;
21501;SDS011;27639;48.674;9.242;2023-01-05T09:51:24;9.50;;;1.50;;
21501;SDS011;27639;48.674;9.242;2023-01-05T09:53:51;6.40;;;1.17;;
21501;SDS011;27639;48.674;9.242;2023-01-05T09:56:25;5.80;;;1.25;;
21501;SDS011;27639;48.674;9.242;2023-01-05T09:59:06;6.32;;;1.58;;
21501;SDS011;27639;48.674;9.242;2023-01-05T10:01:42;8.13;;;1.77;;
21501;SDS011;27639;48.674;9.242;2023-01-05T10:04:12;5.88;;;1.30;;
21501;SDS011;27639;48.674;9.242;2023-01-05T10:06:41;8.45;;;1.83;;
21501;SDS011;27639;48.674;9.242;2023-01-05T10:09:17;9.30;;;1.92;;
21501;SDS011;27639;48.674;9.242;2023-01-05T10:11:56;6.43;;;1.30;;
21501;SDS011;27639;48.674;9.242;2023-01-05T10:14:52;8.65;;;2.47;;
21501;SDS011;27639;48.674;9.242;2023-01-05T10:17:32;6.65;;;1.58;;
21501;SDS011;27639;48.674;9.242;2023-01-05T10:20:00;7.10;;;1.85;;
21501;SDS011;27639;48.674;9.242;2023-01-05T10:33:13;8.20;;;1.42;;
21501;SDS011;27639;48.674;9.242;2023-01-05T10:41:45;5.47;;;1.30;;
21501;SDS011;27639;48.674;9.242;2023-01-05T10:44:39;9.35;;;1.40;;
21501;SDS011;27639;48.674;9.242;2023-01-05T10:47:23;6.07;;;1.58;;
21501;SDS011;27639;48.674;9.242;2023-01-05T10:49:51;6.50;;;1.33;;
21501;SDS011;27639;48.674;9.242;2023-01-05T10:52:17;6.72;;;1.40;;
21501;SDS011;27639;48.674;9.242;2023-01-05T10:54:52;6.30;;;1.45;;
21501;SDS011;27639;48.674;9.242;2023-01-05T10:59:59;6.88;;;1.70;;
21501;SDS011;27639;48.674;9.242;2023-01-05T11:02:48;7.95;;;1.40;;
21501;SDS011;27639;48.674;9.242;2023-01-05T11:05:33;5.30;;;1.42;;
21501;SDS011;27639;48.674;9.242;2023-01-05T11:08:03;7.32;;;1.40;;
21501;SDS011;27639;48.674;9.242;2023-01-05T11:13:16;5.10;;;1.17;;
21501;SDS011;27639;48.674;9.242;2023-01-05T11:18:48;6.18;;;1.40;;
21501;SDS011;27639;48.674;9.242;2023-01-05T11:21:19;6.70;;;1.27;;
21501;SDS011;27639;48.674;9.242;2023-01-05T11:23:52;7.80;;;1.58;;
21501;SDS011;27639;48.674;9.242;2023-01-05T11:26:24;5.20;;;1.45;;
21501;SDS011;27639;48.674;9.242;2023-01-05T11:31:37;6.35;;;1.30;;
21501;SDS011;27639;48.674;9.242;2023-01-05T11:39:29;6.78;;;1.65;;
21501;SDS011;27639;48.674;9.242;2023-01-05T11:44:45;9.65;;;2.28;;
21501;SDS011;27639;48.674;9.242;2023-01-05T11:47:20;8.25;;;1.92;;
21501;SDS011;27639;48.674;9.242;2023-01-05T11:52:42;6.43;;;1.92;;
21501;SDS011;27639;48.674;9.242;2023-01-05T11:57:54;6.68;;;2.45;;
21501;SDS011;27639;48.674;9.242;2023-01-05T12:09:38;7.38;;;1.70;;
21501;SDS011;27639;48.674;9.242;2023-01-05T12:12:21;7.22;;;1.50;;
21501;SDS011;27639;48.674;9.242;2023-01-05T12:15:15;5.97;;;1.40;;
21501;SDS011;27639;48.674;9.242;2023-01-05T12:20:53;6.22;;;1.58;;
21501;SDS011;27639;48.674;9.242;2023-01-05T12:26:09;7.78;;;1.90;;
21501;SDS011;27639;48.674;9.242;2023-01-05T12:43:01;7.90;;;2.17;;
21501;SDS011;27639;48.674;9.242;2023-01-05T12:48:11;9.18;;;1.60;;
21501;SDS011;27639;48.674;9.242;2023-01-05T12:50:43;10.52;;;2.10;;
21501;SDS011;27639;48.674;9.242;2023-01-05T12:53:25;7.88;;;1.77;;
21501;SDS011;27639;48.674;9.242;2023-01-05T12:55:53;9.63;;;2.17;;
21501;SDS011;27639;48.674;9.242;2023-01-05T12:58:26;4.80;;;1.50;;
21501;SDS011;27639;48.674;9.242;2023-01-05T13:01:00;8.48;;;2.03;;
21501;SDS011;27639;48.674;9.242;2023-01-05T13:03:34;10.13;;;1.98;;
21501;SDS011;27639;48.674;9.242;2023-01-05T13:06:15;6.90;;;1.63;;
21501;SDS011;27639;48.674;9.242;2023-01-05T13:14:02;8.63;;;1.75;;
21501;SDS011;27639;48.674;9.242;2023-01-05T13:16:39;7.13;;;2.03;;
21501;SDS011;27639;48.674;9.242;2023-01-05T13:19:13;9.07;;;1.95;;
21501;SDS011;27639;48.674;9.242;2023-01-05T13:21:59;11.95;;;2.50;;
21501;SDS011;27639;48.674;9.242;2023-01-05T13:24:36;8.05;;;2.63;;
21501;SDS011;27639;48.674;9.242;2023-01-05T13:27:05;8.82;;;2.53;;
21501;SDS011;27639;48.674;9.242;2023-01-05T13:29:34;8.02;;;2.30;;
21501;SDS011;27639;48.674;9.242;2023-01-05T13:32:15;8.15;;;2.05;;
21501;SDS011;27639;48.674;9.242;2023-01-05T13:35:03;9.25;;;2.15;;
21501;SDS011;27639;48.674;9.242;2023-01-05T13:43:24;7.50;;;2.50;;
21501;SDS011;27639;48.674;9.242;2023-01-05T13:46:11;7.35;;;2.38;;
21501;SDS011;27639;48.674;9.242;2023-01-05T13:51:51;8.02;;;2.50;;
21501;SDS011;27639;48.674;9.242;2023-01-05T13:54:56;10.63;;;3.03;;
21501;SDS011;27639;48.674;9.242;2023-01-05T13:57:27;10.00;;;2.00;;
21501;SDS011;27639;48.674;9.242;2023-01-05T14:00:06;7.57;;;2.28;;
21501;SDS011;27639;48.674;9.242;2023-01-05T14:02:59;6.05;;;1.88;;
21501;SDS011;27639;48.674;9.242;2023-01-05T14:05:33;8.38;;;2.40;;
21501;SDS011;27639;48.674;9.242;2023-01-05T14:08:02;11.27;;;3.38;;
21501;SDS011;27639;48.674;9.242;2023-01-05T14:10:30;10.40;;;2.67;;
21501;SDS011;27639;48.674;9.242;2023-01-05T14:12:58;8.30;;;2.45;;
21501;SDS011;27639;48.674;9.242;2023-01-05T14:15:38;9.43;;;2.80;;
21501;SDS011;27639;48.674;9.242;2023-01-05T14:18:06;9.20;;;2.90;;
21501;SDS011;27639;48.674;9.242;2023-01-05T14:20:49;13.35;;;4.32;;
21501;SDS011;27639;48.674;9.242;2023-01-05T14:36:38;6.38;;;2.40;;
21501;SDS011;27639;48.674;9.242;2023-01-05T14:41:42;5.43;;;1.88;;
21501;SDS011;27639;48.674;9.242;2023-01-05T14:44:22;11.05;;;2.10;;
21501;SDS011;27639;48.674;9.242;2023-01-05T14:46:58;8.35;;;2.55;;
21501;SDS011;27639;48.674;9.242;2023-01-05T14:49:29;12.02;;;2.70;;
21501;SDS011;27639;48.674;9.242;2023-01-05T14:51:56;11.60;;;2.08;;
21501;SDS011;27639;48.674;9.242;2023-01-05T14:59:50;7.75;;;2.30;;
21501;SDS011;27639;48.674;9.242;2023-01-05T15:02:25;9.48;;;2.78;;
21501;SDS011;27639;48.674;9.242;2023-01-05T15:04:58;8.70;;;2.40;;
21501;SDS011;27639;48.674;9.242;2023-01-05T15:10:57;7.72;;;2.78;;
21501;SDS011;27639;48.674;9.242;2023-01-05T15:31:25;11.60;;;3.47;;
21501;SDS011;27639;48.674;9.242;2023-01-05T15:34:13;13.30;;;4.03;;
21501;SDS011;27639;48.674;9.242;2023-01-05T15:39:45;13.73;;;4.47;;
21501;SDS011;27639;48.674;9.242;2023-01-05T15:42:14;11.20;;;4.22;;
21501;SDS011;27639;48.674;9.242;2023-01-05T15:44:44;10.35;;;4.07;;
21501;SDS011;27639;48.674;9.242;2023-01-05T15:47:12;11.20;;;3.90;;
21501;SDS011;27639;48.674;9.242;2023-01-05T15:49:38;10.20;;;4.65;;
21501;SDS011;27639;48.674;9.242;2023-01-05T15:52:04;9.32;;;3.80;;
21501;SDS011;27639;48.674;9.242;2023-01-05T15:54:41;8.93;;;3.65;;
21501;SDS011;27639;48.674;9.242;2023-01-05T15:57:17;9.15;;;2.58;;
21501;SDS011;27639;48.674;9.242;2023-01-05T15:59:46;7.60;;;2.88;;
21501;SDS011;27639;48.674;9.242;2023-01-05T16:02:16;11.40;;;3.03;;
21501;SDS011;27639;48.674;9.242;2023-01-05T16:05:05;9.60;;;2.45;;
21501;SDS011;27639;48.674;9.242;2023-01-05T16:07:40;11.05;;;2.92;;
21501;SDS011;27639;48.674;9.242;2023-01-05T16:10:14;7.25;;;2.60;;
21501;SDS011;27639;48.674;9.242;2023-01-05T16:12:46;8.93;;;2.75;;
21501;SDS011;27639;48.674;9.242;2023-01-05T16:15:15;7.72;;;2.58;;
21501;SDS011;27639;48.674;9.242;2023-01-05T16:17:44;9.05;;;2.80;;
21501;SDS011;27639;48.674;9.242;2023-01-05T16:25:29;10.82;;;4.57;;
21501;SDS011;27639;48.674;9.242;2023-01-05T16:28:01;10.82;;;3.70;;
21501;SDS011;27639;48.674;9.242;2023-01-05T16:35:37;8.90;;;3.53;;
21501;SDS011;27639;48.674;9.242;2023-01-05T16:51:11;6.53;;;3.38;;
21501;SDS011;27639;48.674;9.242;2023-01-05T16:53:47;9.23;;;3.67;;
21501;SDS011;27639;48.674;9.242;2023-01-05T16:56:20;9.82;;;4.80;;
21501;SDS011;27639;48.674;9.242;2023-01-05T16:58:46;6.78;;;3.05;;
21501;SDS011;27639;48.674;9.242;2023-01-05T17:03:39;9.30;;;3.40;;
21501;SDS011;27639;48.674;9.242;2023-01-05T17:06:10;8.85;;;3.88;;
21501;SDS011;27639;48.674;9.242;2023-01-05T17:08:43;9.15;;;3.53;;
21501;SDS011;27639;48.674;9.242;2023-01-05T17:11:08;10.85;;;4.10;;
21501;SDS011;27639;48.674;9.242;2023-01-05T17:13:39;9.30;;;4.80;;
21501;SDS011;27639;48.674;9.242;2023-01-05T17:16:11;10.68;;;6.38;;
21501;SDS011;27639;48.674;9.242;2023-01-05T17:18:38;23.63;;;12.68;;
21501;SDS011;27639;48.674;9.242;2023-01-05T17:21:04;56.10;;;27.55;;
21501;SDS011;27639;48.674;9.242;2023-01-05T17:23:45;59.28;;;28.00;;
21501;SDS011;27639;48.674;9.242;2023-01-05T17:26:23;61.47;;;29.15;;
21501;SDS011;27639;48.674;9.242;2023-01-05T17:28:59;63.20;;;34.58;;
21501;SDS011;27639;48.674;9.242;2023-01-05T17:31:26;43.35;;;25.85;;
21501;SDS011;27639;48.674;9.242;2023-01-05T17:33:52;27.98;;;18.55;;
21501;SDS011;27639;48.674;9.242;2023-01-05T17:36:17;15.85;;;10.40;;
21501;SDS011;27639;48.674;9.242;2023-01-05T17:38:48;11.70;;;6.55;;
21501;SDS011;27639;48.674;9.242;2023-01-05T17:41:14;9.32;;;5.00;;
21501;SDS011;27639;48.674;9.242;2023-01-05T17:43:40;8.32;;;3.58;;
21501;SDS011;27639;48.674;9.242;2023-01-05T17:46:05;8.40;;;2.80;;
21501;SDS011;27639;48.674;9.242;2023-01-05T17:48:33;10.02;;;2.80;;
21501;SDS011;27639;48.674;9.242;2023-01-05T17:50:58;6.60;;;2.40;;
21501;SDS011;27639;48.674;9.242;2023-01-05T17:53:24;8.30;;;2.80;;
21501;SDS011;27639;48.674;9.242;2023-01-05T17:55:49;10.15;;;3.80;;
21501;SDS011;27639;48.674;9.242;2023-01-05T17:58:15;6.85;;;3.00;;
21501;SDS011;27639;48.674;9.242;2023-01-05T18:00:41;5.82;;;2.42;;
21501;SDS011;27639;48.674;9.242;2023-01-05T18:03:13;9.40;;;2.97;;
21501;SDS011;27639;48.674;9.242;2023-01-05T18:05:41;9.05;;;2.80;;
21501;SDS011;27639;48.674;9.242;2023-01-05T18:08:08;9.27;;;3.38;;
21501;SDS011;27639;48.674;9.242;2023-01-05T18:10:34;11.60;;;3.65;;
21501;SDS011;27639;48.674;9.242;2023-01-05T18:13:01;10.98;;;3.67;;
21501;SDS011;27639;48.674;9.242;2023-01-05T18:15:27;10.30;;;3.70;;
21501;SDS011;27639;48.674;9.242;2023-01-05T18:17:56;9.18;;;4.70;;
21501;SDS011;27639;48.674;9.242;2023-01-05T18:20:22;11.68;;;4.82;;
21501;SDS011;27639;48.674;9.242;2023-01-05T18:22:48;12.20;;;5.40;;